sensor_id;sensor_type;location;lat;lon;timestamp;pressure;altitude;pressure_sealevel;temperature;humidity
24031;BME280;12240;51.142;22.486;2023-03-03T00:02:14;99504.81;;;-0.48;100.00
24031;BME280;12240;51.142;22.486;2023-03-03T00:04:42;99654.56;;;0.38;100.00
24031;BME280;12240;51.142;22.486;2023-03-03T00:07:11;99601.38;;;0.05;100.00
24031;BME280;12240;51.142;22.486;2023-03-03T00:09:39;99627.59;;;0.20;100.00
24031;BME280;12240;51.142;22.486;2023-03-03T00:12:24;99660.72;;;0.37;100.00
24031;BME280;12240;51.142;22.486;2023-03-03T00:14:53;99663.44;;;0.35;100.00
24031;BME280;12240;51.142;22.486;2023-03-03T00:17:28;99651.50;;;0.30;100.00
24031;BME280;12240;51.142;22.486;2023-03-03T00:19:57;99650.72;;;0.28;100.00
24031;BME280;12240;51.142;22.486;2023-03-03T00:22:34;99665.97;;;0.37;100.00
24031;BME280;12240;51.142;22.486;2023-03-03T00:28:18;99654.50;;;0.39;100.00
24031;BME280;12240;51.142;22.486;2023-03-03T00:30:50;99654.50;;;0.39;100.00
24031;BME280;12240;51.142;22.486;2023-03-03T00:33:35;99593.44;;;0.06;100.00
24031;BME280;12240;51.142;22.486;2023-03-03T00:38:43;99627.09;;;0.29;100.00
24031;BME280;12240;51.142;22.486;2023-03-03T00:41:38;99635.56;;;0.34;100.00
24031;BME280;12240;51.142;22.486;2023-03-03T00:49:55;99645.94;;;0.36;100.00
24031;BME280;12240;51.142;22.486;2023-03-03T00:52:27;99640.63;;;0.37;100.00
24031;BME280;12240;51.142;22.486;2023-03-03T00:54:56;99638.78;;;0.39;100.00
24031;BME280;12240;51.142;22.486;2023-03-03T00:57:24;99582.13;;;0.06;100.00
24031;BME280;12240;51.142;22.486;2023-03-03T00:59:52;99632.78;;;0.37;100.00
24031;BME280;12240;51.142;22.486;2023-03-03T01:02:21;99624.31;;;0.32;100.00
24031;BME280;12240;51.142;22.486;2023-03-03T01:04:51;99633.44;;;0.41;100.00
24031;BME280;12240;51.142;22.486;2023-03-03T01:07:23;99629.28;;;0.37;100.00
24031;BME280;12240;51.142;22.486;2023-03-03T01:09:52;99600.47;;;0.21;100.00
24031;BME280;12240;51.142;22.486;2023-03-03T01:12:20;99574.78;;;0.12;100.00
24031;BME280;12240;51.142;22.486;2023-03-03T01:14:48;99571.25;;;0.13;100.00
24031;BME280;12240;51.142;22.486;2023-03-03T01:17:19;99630.47;;;0.47;100.00
24031;BME280;12240;51.142;22.486;2023-03-03T01:19:47;99616.56;;;0.46;100.00
24031;BME280;12240;51.142;22.486;2023-03-03T01:22:15;99559.41;;;0.06;100.00
24031;BME280;12240;51.142;22.486;2023-03-03T01:24:43;99565.06;;;0.14;100.00
24031;BME280;12240;51.142;22.486;2023-03-03T01:27:11;99609.97;;;0.39;100.00
24031;BME280;12240;51.142;22.486;2023-03-03T01:29:39;99553.09;;;0.10;100.00
24031;BME280;12240;51.142;22.486;2023-03-03T01:32:07;99552.91;;;0.13;100.00
24031;BME280;12240;51.142;22.486;2023-03-03T01:34:35;99601.94;;;0.42;100.00
24031;BME280;12240;51.142;22.486;2023-03-03T01:37:04;99602.59;;;0.46;100.00
24031;BME280;12240;51.142;22.486;2023-03-03T01:39:33;99604.28;;;0.47;100.00
24031;BME280;12240;51.142;22.486;2023-03-03T01:42:02;99565.44;;;0.24;100.00
24031;BME280;12240;51.142;22.486;2023-03-03T01:44:31;99596.50;;;0.45;100.00
24031;BME280;12240;51.142;22.486;2023-03-03T01:47:22;99603.13;;;0.52;100.00
24031;BME280;12240;51.142;22.486;2023-03-03T01:50:02;99603.88;;;0.54;100.00
24031;BME280;12240;51.142;22.486;2023-03-03T01:52:43;99593.66;;;0.50;100.00
24031;BME280;12240;51.142;22.486;2023-03-03T01:55:29;99596.97;;;0.53;100.00
24031;BME280;12240;51.142;22.486;2023-03-03T01:58:08;99599.72;;;0.50;100.00
24031;BME280;12240;51.142;22.486;2023-03-03T02:00:41;99599.41;;;0.56;100.00
24031;BME280;12240;51.142;22.486;2023-03-03T02:03:12;99600.41;;;0.54;100.00
24031;BME280;12240;51.142;22.486;2023-03-03T02:05:41;99596.97;;;0.53;100.00
24031;BME280;12240;51.142;22.486;2023-03-03T02:08:12;99548.78;;;0.25;100.00
24031;BME280;12240;51.142;22.486;2023-03-03T02:10:44;99599.50;;;0.55;100.00
24031;BME280;12240;51.142;22.486;2023-03-03T02:13:12;99599.41;;;0.56;100.00
24031;BME280;12240;51.142;22.486;2023-03-03T02:15:40;99602.03;;;0.56;100.00
24031;BME280;12240;51.142;22.486;2023-03-03T02:18:14;99596.97;;;0.53;100.00
24031;BME280;12240;51.142;22.486;2023-03-03T02:21:15;99572.03;;;0.31;100.00
24031;BME280;12240;51.142;22.486;2023-03-03T02:27:00;99591.09;;;0.48;100.00
24031;BME280;12240;51.142;22.486;2023-03-03T02:29:29;99588.34;;;0.51;100.00
24031;BME280;12240;51.142;22.486;2023-03-03T02:31:58;99580.88;;;0.44;100.00
24031;BME280;12240;51.142;22.486;2023-03-03T02:34:26;99588.34;;;0.51;100.00
24031;BME280;12240;51.142;22.486;2023-03-03T02:36:55;99579.13;;;0.44;100.00
24031;BME280;12240;51.142;22.486;2023-03-03T02:39:25;99530.72;;;0.20;100.00
24031;BME280;12240;51.142;22.486;2023-03-03T02:44:49;99579.78;;;0.48;100.00
24031;BME280;12240;51.142;22.486;2023-03-03T02:47:18;99581.47;;;0.49;100.00
24031;BME280;12240;51.142;22.486;2023-03-03T02:49:46;99564.41;;;0.42;100.00
24031;BME280;12240;51.142;22.486;2023-03-03T02:52:14;99519.56;;;0.17;100.00
24031;BME280;12240;51.142;22.486;2023-03-03T02:54:46;99567.28;;;0.53;100.00
24031;BME280;12240;51.142;22.486;2023-03-03T02:57:14;99575.16;;;0.53;100.00
24031;BME280;12240;51.142;22.486;2023-03-03T02:59:42;99569.16;;;0.51;100.00
24031;BME280;12240;51.142;22.486;2023-03-03T03:02:13;99569.22;;;0.49;100.00
24031;BME280;12240;51.142;22.486;2023-03-03T03:04:42;99576.06;;;0.52;100.00
24031;BME280;12240;51.142;22.486;2023-03-03T03:07:15;99569.91;;;0.53;100.00
24031;BME280;12240;51.142;22.486;2023-03-03T03:09:44;99525.22;;;0.25;100.00
24031;BME280;12240;51.142;22.486;2023-03-03T03:12:12;99567.28;;;0.53;100.00
24031;BME280;12240;51.142;22.486;2023-03-03T03:14:43;99573.53;;;0.50;100.00
24031;BME280;12240;51.142;22.486;2023-03-03T03:17:11;99556.63;;;0.40;100.00
24031;BME280;12240;51.142;22.486;2023-03-03T03:19:40;99504.09;;;0.12;100.00
24031;BME280;12240;51.142;22.486;2023-03-03T03:22:08;99451.81;;;-0.21;100.00
24031;BME280;12240;51.142;22.486;2023-03-03T03:24:38;99559.03;;;0.45;100.00
24031;BME280;12240;51.142;22.486;2023-03-03T03:27:08;99554.69;;;0.44;100.00
24031;BME280;12240;51.142;22.486;2023-03-03T03:29:36;99556.41;;;0.45;100.00
24031;BME280;12240;51.142;22.486;2023-03-03T03:32:05;99550.41;;;0.43;100.00
24031;BME280;12240;51.142;22.486;2023-03-03T03:34:34;99539.25;;;0.39;100.00
24031;BME280;12240;51.142;22.486;2023-03-03T03:37:03;99539.16;;;0.41;100.00
24031;BME280;12240;51.142;22.486;2023-03-03T03:39:31;99489.41;;;0.10;100.00
24031;BME280;12240;51.142;22.486;2023-03-03T03:41:59;99546.75;;;0.45;100.00
24031;BME280;12240;51.142;22.486;2023-03-03T03:44:27;99547.91;;;0.40;100.00
24031;BME280;12240;51.142;22.486;2023-03-03T03:46:56;99497.34;;;0.08;100.00
24031;BME280;12240;51.142;22.486;2023-03-03T03:49:24;99542.84;;;0.37;100.00
24031;BME280;12240;51.142;22.486;2023-03-03T03:51:55;99539.56;;;0.33;100.00
24031;BME280;12240;51.142;22.486;2023-03-03T03:54:27;99541.38;;;0.33;100.00
24031;BME280;12240;51.142;22.486;2023-03-03T03:56:55;99480.28;;;0.01;100.00
24031;BME280;12240;51.142;22.486;2023-03-03T03:59:24;99482.13;;;-0.01;100.00
24031;BME280;12240;51.142;22.486;2023-03-03T04:01:53;99492.44;;;0.02;100.00
24031;BME280;12240;51.142;22.486;2023-03-03T04:04:22;99543.22;;;0.31;100.00
24031;BME280;12240;51.142;22.486;2023-03-03T04:06:50;99513.06;;;0.08;100.00
24031;BME280;12240;51.142;22.486;2023-03-03T04:09:19;99492.97;;;0.09;100.00
24031;BME280;12240;51.142;22.486;2023-03-03T04:11:48;99472.53;;;-0.01;100.00
24031;BME280;12240;51.142;22.486;2023-03-03T04:14:17;99526.97;;;0.24;100.00
24031;BME280;12240;51.142;22.486;2023-03-03T04:16:45;99515.91;;;0.19;100.00
24031;BME280;12240;51.142;22.486;2023-03-03T04:19:13;99478.16;;;-0.08;100.00
24031;BME280;12240;51.142;22.486;2023-03-03T04:21:42;99516.44;;;0.10;100.00
24031;BME280;12240;51.142;22.486;2023-03-03T04:24:11;99536.84;;;0.19;100.00
24031;BME280;12240;51.142;22.486;2023-03-03T04:26:39;99475.72;;;-0.11;100.00
24031;BME280;12240;51.142;22.486;2023-03-03T04:29:08;99496.25;;;-0.04;100.00
24031;BME280;12240;51.142;22.486;2023-03-03T04:31:37;99533.81;;;0.11;100.00
24031;BME280;12240;51.142;22.486;2023-03-03T04:34:08;99529.09;;;0.18;100.00
24031;BME280;12240;51.142;22.486;2023-03-03T04:36:36;99530.13;;;0.15;100.00
24031;BME280;12240;51.142;22.486;2023-03-03T04:39:05;99533.41;;;0.19;100.00
24031;BME280;12240;51.142;22.486;2023-03-03T04:41:33;99475.22;;;-0.18;100.00
24031;BME280;12240;51.142;22.486;2023-03-03T04:44:01;99533.66;;;0.14;100.00
24031;BME280;12240;51.142;22.486;2023-03-03T04:46:29;99521.50;;;0.13;100.00
24031;BME280;12240;51.142;22.486;2023-03-03T04:48:58;99460.94;;;-0.28;100.00
24031;BME280;12240;51.142;22.486;2023-03-03T04:51:27;99515.09;;;0.03;100.00
24031;BME280;12240;51.142;22.486;2023-03-03T04:54:12;99455.34;;;-0.37;100.00
24031;BME280;12240;51.142;22.486;2023-03-03T04:56:40;99503.06;;;-0.17;100.00
24031;BME280;12240;51.142;22.486;2023-03-03T04:59:09;99514.38;;;-0.16;100.00
24031;BME280;12240;51.142;22.486;2023-03-03T05:01:37;99509.91;;;-0.14;100.00
24031;BME280;12240;51.142;22.486;2023-03-03T05:04:06;99466.22;;;-0.45;100.00
24031;BME280;12240;51.142;22.486;2023-03-03T05:06:34;99509.72;;;-0.27;100.00
24031;BME280;12240;51.142;22.486;2023-03-03T05:09:02;99509.03;;;-0.30;100.00
24031;BME280;12240;51.142;22.486;2023-03-03T05:11:30;99517.75;;;-0.30;100.00
24031;BME280;12240;51.142;22.486;2023-03-03T05:13:59;99508.75;;;-0.41;100.00
24031;BME280;12240;51.142;22.486;2023-03-03T05:16:28;99465.44;;;-0.62;100.00
24031;BME280;12240;51.142;22.486;2023-03-03T05:18:56;99515.25;;;-0.33;100.00
24031;BME280;12240;51.142;22.486;2023-03-03T05:21:24;99461.00;;;-0.60;100.00
24031;BME280;12240;51.142;22.486;2023-03-03T05:23:52;99481.09;;;-0.45;100.00
24031;BME280;12240;51.142;22.486;2023-03-03T05:26:20;99522.31;;;-0.18;100.00
24031;BME280;12240;51.142;22.486;2023-03-03T05:28:49;99517.00;;;-0.16;100.00
24031;BME280;12240;51.142;22.486;2023-03-03T05:31:17;99519.94;;;-0.07;100.00
24031;BME280;12240;51.142;22.486;2023-03-03T05:33:45;99490.41;;;-0.24;100.00
24031;BME280;12240;51.142;22.486;2023-03-03T05:36:13;99527.41;;;0.01;100.00
24031;BME280;12240;51.142;22.486;2023-03-03T05:38:41;99517.88;;;0.00;100.00
24031;BME280;12240;51.142;22.486;2023-03-03T05:41:09;99464.47;;;-0.29;100.00
24031;BME280;12240;51.142;22.486;2023-03-03T05:43:38;99479.59;;;-0.18;100.00
24031;BME280;12240;51.142;22.486;2023-03-03T05:46:06;99521.22;;;0.02;100.00
24031;BME280;12240;51.142;22.486;2023-03-03T05:48:34;99437.38;;;-0.43;100.00
24031;BME280;12240;51.142;22.486;2023-03-03T05:51:02;99518.59;;;0.02;100.00
24031;BME280;12240;51.142;22.486;2023-03-03T05:53:30;99521.59;;;0.12;100.00
24031;BME280;12240;51.142;22.486;2023-03-03T05:55:59;99448.88;;;-0.30;100.00
24031;BME280;12240;51.142;22.486;2023-03-03T05:58:27;99519.66;;;0.15;100.00
24031;BME280;12240;51.142;22.486;2023-03-03T06:00:55;99518.63;;;0.18;100.00
24031;BME280;12240;51.142;22.486;2023-03-03T06:03:23;99512.69;;;0.14;100.00
24031;BME280;12240;51.142;22.486;2023-03-03T06:05:51;99512.88;;;0.27;100.00
24031;BME280;12240;51.142;22.486;2023-03-03T06:08:19;99516.25;;;0.29;100.00
24031;BME280;12240;51.142;22.486;2023-03-03T06:10:47;99497.09;;;0.13;100.00
24031;BME280;12240;51.142;22.486;2023-03-03T06:13:15;99516.50;;;0.24;100.00
24031;BME280;12240;51.142;22.486;2023-03-03T06:15:43;99520.66;;;0.28;100.00
24031;BME280;12240;51.142;22.486;2023-03-03T06:18:11;99464.75;;;-0.02;100.00
24031;BME280;12240;51.142;22.486;2023-03-03T06:20:39;99480.69;;;0.09;100.00
24031;BME280;12240;51.142;22.486;2023-03-03T06:23:08;99528.84;;;0.38;100.00
24031;BME280;12240;51.142;22.486;2023-03-03T06:25:38;99535.44;;;0.45;100.00
24031;BME280;12240;51.142;22.486;2023-03-03T06:28:06;99477.50;;;0.20;100.00
24031;BME280;12240;51.142;22.486;2023-03-03T06:30:35;99518.78;;;0.46;100.00
24031;BME280;12240;51.142;22.486;2023-03-03T06:33:04;99480.19;;;0.18;100.00
24031;BME280;12240;51.142;22.486;2023-03-03T06:35:32;99525.56;;;0.50;100.00
24031;BME280;12240;51.142;22.486;2023-03-03T06:38:00;99520.97;;;0.53;100.00
24031;BME280;12240;51.142;22.486;2023-03-03T06:40:28;99523.94;;;0.47;100.00
24031;BME280;12240;51.142;22.486;2023-03-03T06:42:56;99484.06;;;0.27;100.00
24031;BME280;12240;51.142;22.486;2023-03-03T06:45:24;99525.47;;;0.51;100.00
24031;BME280;12240;51.142;22.486;2023-03-03T06:47:53;99528.66;;;0.56;100.00
24031;BME280;12240;51.142;22.486;2023-03-03T06:50:21;99520.91;;;0.55;100.00
24031;BME280;12240;51.142;22.486;2023-03-03T06:53:12;99445.41;;;0.16;100.00
24031;BME280;12240;51.142;22.486;2023-03-03T06:55:41;99513.53;;;0.61;100.00
24031;BME280;12240;51.142;22.486;2023-03-03T06:58:17;99522.81;;;0.67;100.00
24031;BME280;12240;51.142;22.486;2023-03-03T07:01:00;99515.03;;;0.65;100.00
24031;BME280;12240;51.142;22.486;2023-03-03T07:03:33;99457.38;;;0.36;100.00
24031;BME280;12240;51.142;22.486;2023-03-03T07:06:23;99509.63;;;0.68;100.00
24031;BME280;12240;51.142;22.486;2023-03-03T07:08:53;99507.09;;;0.67;100.00
24031;BME280;12240;51.142;22.486;2023-03-03T07:11:22;99510.44;;;0.69;100.00
24031;BME280;12240;51.142;22.486;2023-03-03T07:13:53;99517.03;;;0.76;100.00
24031;BME280;12240;51.142;22.486;2023-03-03T07:16:26;99458.25;;;0.50;100.00
24031;BME280;12240;51.142;22.486;2023-03-03T07:18:59;99515.31;;;0.90;100.00
24031;BME280;12240;51.142;22.486;2023-03-03T07:21:33;99441.06;;;0.46;100.00
24031;BME280;12240;51.142;22.486;2023-03-03T07:24:29;99505.84;;;0.88;100.00
24031;BME280;12240;51.142;22.486;2023-03-03T07:29:48;99505.31;;;0.97;100.00
24031;BME280;12240;51.142;22.486;2023-03-03T07:35:41;99466.31;;;0.77;100.00
24031;BME280;12240;51.142;22.486;2023-03-03T07:41:03;99492.47;;;0.92;100.00
24031;BME280;12240;51.142;22.486;2023-03-03T07:43:38;99427.16;;;0.60;100.00
24031;BME280;12240;51.142;22.486;2023-03-03T07:51:55;99426.19;;;0.61;100.00
24031;BME280;12240;51.142;22.486;2023-03-03T07:54:34;99486.72;;;1.01;100.00
24031;BME280;12240;51.142;22.486;2023-03-03T07:59:47;99483.94;;;1.18;100.00
24031;BME280;12240;51.142;22.486;2023-03-03T08:03:03;99447.63;;;0.97;100.00
24031;BME280;12240;51.142;22.486;2023-03-03T08:05:45;99430.09;;;0.83;100.00
24031;BME280;12240;51.142;22.486;2023-03-03T08:10:54;99475.50;;;1.13;100.00
24031;BME280;12240;51.142;22.486;2023-03-03T08:18:51;99480.28;;;1.35;100.00
24031;BME280;12240;51.142;22.486;2023-03-03T08:21:24;99449.53;;;1.23;100.00
24031;BME280;12240;51.142;22.486;2023-03-03T08:23:54;99425.56;;;1.01;100.00
24031;BME280;12240;51.142;22.486;2023-03-03T08:26:25;99429.03;;;1.30;100.00
24031;BME280;12240;51.142;22.486;2023-03-03T08:28:54;99465.56;;;1.61;100.00
24031;BME280;12240;51.142;22.486;2023-03-03T08:31:22;99467.34;;;1.60;100.00
24031;BME280;12240;51.142;22.486;2023-03-03T08:34:08;99414.44;;;1.26;100.00
24031;BME280;12240;51.142;22.486;2023-03-03T08:36:36;99413.09;;;1.33;100.00
24031;BME280;12240;51.142;22.486;2023-03-03T08:39:05;99462.19;;;1.73;100.00
24031;BME280;12240;51.142;22.486;2023-03-03T08:41:33;99460.13;;;1.64;100.00
24031;BME280;12240;51.142;22.486;2023-03-03T08:44:02;99457.22;;;1.68;100.00
24031;BME280;12240;51.142;22.486;2023-03-03T08:46:31;99434.19;;;1.45;100.00
24031;BME280;12240;51.142;22.486;2023-03-03T08:48:59;99473.44;;;1.75;100.00
24031;BME280;12240;51.142;22.486;2023-03-03T08:51:27;99470.44;;;1.67;100.00
24031;BME280;12240;51.142;22.486;2023-03-03T08:53:56;99441.75;;;1.50;100.00
24031;BME280;12240;51.142;22.486;2023-03-03T08:56:24;99470.72;;;1.62;100.00
24031;BME280;12240;51.142;22.486;2023-03-03T08:58:53;99477.75;;;1.62;100.00
24031;BME280;12240;51.142;22.486;2023-03-03T09:01:31;99485.25;;;1.82;100.00
24031;BME280;12240;51.142;22.486;2023-03-03T09:04:00;99484.47;;;1.94;100.00
24031;BME280;12240;51.142;22.486;2023-03-03T09:06:28;99482.22;;;1.88;100.00
24031;BME280;12240;51.142;22.486;2023-03-03T09:08:56;99496.00;;;2.05;100.00
24031;BME280;12240;51.142;22.486;2023-03-03T09:11:27;99503.09;;;2.17;100.00
24031;BME280;12240;51.142;22.486;2023-03-03T09:14:13;99502.44;;;2.14;100.00
24031;BME280;12240;51.142;22.486;2023-03-03T09:16:50;99505.81;;;2.16;100.00
24031;BME280;12240;51.142;22.486;2023-03-03T09:19:31;99500.88;;;1.97;100.00
24031;BME280;12240;51.142;22.486;2023-03-03T09:22:24;99515.44;;;2.03;100.00
24031;BME280;12240;51.142;22.486;2023-03-03T09:24:57;99469.22;;;1.72;100.00
24031;BME280;12240;51.142;22.486;2023-03-03T09:27:28;99458.81;;;1.57;100.00
24031;BME280;12240;51.142;22.486;2023-03-03T09:32:40;99503.97;;;1.90;100.00
24031;BME280;12240;51.142;22.486;2023-03-03T09:35:38;99500.59;;;1.88;100.00
24031;BME280;12240;51.142;22.486;2023-03-03T09:38:31;99511.44;;;2.10;100.00
24031;BME280;12240;51.142;22.486;2023-03-03T09:41:16;99518.38;;;2.25;100.00
24031;BME280;12240;51.142;22.486;2023-03-03T09:49:35;99493.88;;;1.84;100.00
24031;BME280;12240;51.142;22.486;2023-03-03T09:52:46;99509.66;;;2.24;100.00
24031;BME280;12240;51.142;22.486;2023-03-03T10:22:54;99447.03;;;3.47;100.00
24031;BME280;12240;51.142;22.486;2023-03-03T10:25:39;99464.56;;;3.72;100.00
24031;BME280;12240;51.142;22.486;2023-03-03T10:31:26;99443.13;;;3.52;100.00
24031;BME280;12240;51.142;22.486;2023-03-03T10:48:59;99424.53;;;3.79;100.00
24031;BME280;12240;51.142;22.486;2023-03-03T10:59:33;99403.31;;;4.06;100.00
24031;BME280;12240;51.142;22.486;2023-03-03T11:05:38;99407.53;;;3.96;100.00
24031;BME280;12240;51.142;22.486;2023-03-03T11:08:28;99399.09;;;3.54;100.00
24031;BME280;12240;51.142;22.486;2023-03-03T11:11:12;99394.16;;;3.63;100.00
24031;BME280;12240;51.142;22.486;2023-03-03T11:13:55;99372.88;;;3.53;100.00
24031;BME280;12240;51.142;22.486;2023-03-03T11:16:52;99396.41;;;3.80;100.00
24031;BME280;12240;51.142;22.486;2023-03-03T11:31:52;99382.94;;;3.23;100.00
24031;BME280;12240;51.142;22.486;2023-03-03T11:34:43;99391.66;;;3.36;100.00
24031;BME280;12240;51.142;22.486;2023-03-03T11:37:44;99392.53;;;3.73;100.00
24031;BME280;12240;51.142;22.486;2023-03-03T11:40:26;99383.41;;;3.89;100.00
24031;BME280;12240;51.142;22.486;2023-03-03T11:43:19;99340.34;;;3.54;100.00
24031;BME280;12240;51.142;22.486;2023-03-03T11:46:26;99387.13;;;3.87;100.00
24031;BME280;12240;51.142;22.486;2023-03-03T11:55:31;99376.19;;;4.27;100.00
24031;BME280;12240;51.142;22.486;2023-03-03T11:58:33;99380.75;;;4.25;100.00
24031;BME280;12240;51.142;22.486;2023-03-03T12:10:26;99344.31;;;3.59;100.00
24031;BME280;12240;51.142;22.486;2023-03-03T12:13:22;99368.84;;;3.73;100.00
24031;BME280;12240;51.142;22.486;2023-03-03T12:22:07;99354.09;;;3.70;100.00
24031;BME280;12240;51.142;22.486;2023-03-03T12:27:28;99355.91;;;3.70;100.00
24031;BME280;12240;51.142;22.486;2023-03-03T12:30:21;99344.97;;;4.34;100.00
24031;BME280;12240;51.142;22.486;2023-03-03T12:33:11;99341.34;;;4.69;100.00
24031;BME280;12240;51.142;22.486;2023-03-03T12:39:08;99313.09;;;4.94;100.00
24031;BME280;12240;51.142;22.486;2023-03-03T13:00:41;99284.28;;;6.00;100.00
24031;BME280;12240;51.142;22.486;2023-03-03T13:03:34;99250.88;;;5.99;100.00
24031;BME280;12240;51.142;22.486;2023-03-03T13:12:37;99293.19;;;6.19;100.00
24031;BME280;12240;51.142;22.486;2023-03-03T13:27:01;99286.56;;;5.39;100.00
24031;BME280;12240;51.142;22.486;2023-03-03T13:30:02;99260.09;;;4.74;100.00
24031;BME280;12240;51.142;22.486;2023-03-03T13:32:50;99315.25;;;5.00;100.00
24031;BME280;12240;51.142;22.486;2023-03-03T13:38:31;99285.41;;;5.75;100.00
24031;BME280;12240;51.142;22.486;2023-03-03T13:41:05;99295.13;;;5.74;100.00
24031;BME280;12240;51.142;22.486;2023-03-03T13:43:44;99299.00;;;5.70;100.00
24031;BME280;12240;51.142;22.486;2023-03-03T13:52:23;99298.59;;;5.10;100.00
24031;BME280;12240;51.142;22.486;2023-03-03T14:00:35;99297.13;;;5.28;100.00
24031;BME280;12240;51.142;22.486;2023-03-03T14:03:59;99253.72;;;4.77;100.00
24031;BME280;12240;51.142;22.486;2023-03-03T14:06:26;99293.78;;;5.26;100.00
24031;BME280;12240;51.142;22.486;2023-03-03T14:11:55;99237.19;;;4.86;100.00
24031;BME280;12240;51.142;22.486;2023-03-03T14:20:23;99262.47;;;5.00;100.00
24031;BME280;12240;51.142;22.486;2023-03-03T14:28:27;99279.16;;;4.89;100.00
24031;BME280;12240;51.142;22.486;2023-03-03T14:30:57;99145.03;;;3.84;100.00
24031;BME280;12240;51.142;22.486;2023-03-03T14:33:36;99273.63;;;4.59;100.00
24031;BME280;12240;51.142;22.486;2023-03-03T14:36:10;99274.09;;;4.64;100.00
24031;BME280;12240;51.142;22.486;2023-03-03T14:38:44;99282.25;;;4.72;100.00
24031;BME280;12240;51.142;22.486;2023-03-03T14:41:16;99278.16;;;4.57;100.00
24031;BME280;12240;51.142;22.486;2023-03-03T14:43:55;99273.81;;;4.56;100.00
24031;BME280;12240;51.142;22.486;2023-03-03T14:49:03;99230.03;;;4.20;100.00
24031;BME280;12240;51.142;22.486;2023-03-03T14:51:44;99226.78;;;4.17;100.00
24031;BME280;12240;51.142;22.486;2023-03-03T14:57:15;99292.00;;;4.37;100.00
24031;BME280;12240;51.142;22.486;2023-03-03T15:02:56;99295.75;;;4.45;100.00
24031;BME280;12240;51.142;22.486;2023-03-03T15:05:31;99283.59;;;4.32;100.00
24031;BME280;12240;51.142;22.486;2023-03-03T15:08:08;99291.91;;;4.38;100.00
24031;BME280;12240;51.142;22.486;2023-03-03T15:10:52;99278.81;;;4.26;100.00
24031;BME280;12240;51.142;22.486;2023-03-03T15:18:28;99237.94;;;4.20;100.00
24031;BME280;12240;51.142;22.486;2023-03-03T15:21:22;99243.06;;;4.11;100.00
24031;BME280;12240;51.142;22.486;2023-03-03T15:48:32;99281.78;;;3.87;100.00
24031;BME280;12240;51.142;22.486;2023-03-03T15:54:42;99277.84;;;3.69;100.00
24031;BME280;12240;51.142;22.486;2023-03-03T16:03:25;99294.38;;;3.47;100.00
24031;BME280;12240;51.142;22.486;2023-03-03T16:06:29;99295.75;;;3.40;100.00
24031;BME280;12240;51.142;22.486;2023-03-03T16:12:09;99305.16;;;3.06;100.00
24031;BME280;12240;51.142;22.486;2023-03-03T16:24:05;99320.78;;;2.72;100.00
24031;BME280;12240;51.142;22.486;2023-03-03T16:30:08;99328.34;;;2.51;100.00
24031;BME280;12240;51.142;22.486;2023-03-03T16:37:59;99276.50;;;1.89;100.00
24031;BME280;12240;51.142;22.486;2023-03-03T16:52:11;99289.88;;;1.45;100.00
24031;BME280;12240;51.142;22.486;2023-03-03T16:55:14;99341.09;;;1.65;100.00
24031;BME280;12240;51.142;22.486;2023-03-03T16:58:18;99317.97;;;1.43;100.00
24031;BME280;12240;51.142;22.486;2023-03-03T17:01:06;99319.78;;;1.43;100.00
24031;BME280;12240;51.142;22.486;2023-03-03T17:04:00;99353.19;;;1.53;100.00
24031;BME280;12240;51.142;22.486;2023-03-03T17:12:29;99347.88;;;1.55;100.00
24031;BME280;12240;51.142;22.486;2023-03-03T17:20:58;99358.81;;;1.61;100.00
24031;BME280;12240;51.142;22.486;2023-03-03T17:26:46;99355.78;;;1.67;100.00
24031;BME280;12240;51.142;22.486;2023-03-03T17:41:53;99360.16;;;1.54;100.00
24031;BME280;12240;51.142;22.486;2023-03-03T17:44:48;99364.00;;;1.49;100.00
24031;BME280;12240;51.142;22.486;2023-03-03T17:48:02;99353.03;;;1.56;100.00
24031;BME280;12240;51.142;22.486;2023-03-03T17:53:58;99340.66;;;1.58;100.00
24031;BME280;12240;51.142;22.486;2023-03-03T18:00:17;99337.38;;;1.55;100.00
24031;BME280;12240;51.142;22.486;2023-03-03T18:06:49;99347.50;;;1.47;100.00
24031;BME280;12240;51.142;22.486;2023-03-03T18:10:05;99342.44;;;1.44;100.00
24031;BME280;12240;51.142;22.486;2023-03-03T18:13:17;99342.66;;;1.41;100.00
24031;BME280;12240;51.142;22.486;2023-03-03T18:16:25;99351.09;;;1.32;100.00
24031;BME280;12240;51.142;22.486;2023-03-03T18:21:56;99344.72;;;1.22;100.00
24031;BME280;12240;51.142;22.486;2023-03-03T18:24:39;99350.16;;;1.18;100.00
24031;BME280;12240;51.142;22.486;2023-03-03T18:35:30;99342.75;;;1.25;100.00
24031;BME280;12240;51.142;22.486;2023-03-03T18:38:27;99338.84;;;1.18;100.00
24031;BME280;12240;51.142;22.486;2023-03-03T18:41:10;99341.16;;;1.23;100.00
24031;BME280;12240;51.142;22.486;2023-03-03T18:59:55;99328.06;;;1.08;100.00
24031;BME280;12240;51.142;22.486;2023-03-03T19:02:34;99339.13;;;1.13;100.00
24031;BME280;12240;51.142;22.486;2023-03-03T19:05:21;99334.16;;;1.09;100.00
24031;BME280;12240;51.142;22.486;2023-03-03T19:08:21;99338.47;;;1.10;100.00
24031;BME280;12240;51.142;22.486;2023-03-03T19:11:00;99275.84;;;0.77;100.00
24031;BME280;12240;51.142;22.486;2023-03-03T19:13:41;99340.44;;;1.06;100.00
24031;BME280;12240;51.142;22.486;2023-03-03T19:16:28;99331.06;;;1.02;100.00
24031;BME280;12240;51.142;22.486;2023-03-03T19:19:01;99337.72;;;1.08;100.00
24031;BME280;12240;51.142;22.486;2023-03-03T19:21:33;99344.53;;;1.10;100.00
24031;BME280;12240;51.142;22.486;2023-03-03T19:24:32;99343.63;;;1.11;100.00
24031;BME280;12240;51.142;22.486;2023-03-03T19:27:27;99351.84;;;1.05;100.00
24031;BME280;12240;51.142;22.486;2023-03-03T19:30:36;99302.78;;;0.79;100.00
24031;BME280;12240;51.142;22.486;2023-03-03T19:34:04;99355.78;;;1.12;100.00